createdAt,value
2023-04-11T17:40:16.695Z,100703.88
2023-04-11T17:42:42.981Z,100708.28
2023-04-11T17:45:17.702Z,100717.94
2023-04-11T17:47:45.037Z,100717.91
2023-04-11T17:50:12.719Z,100724.09
2023-04-11T17:52:40.716Z,100735.59
2023-04-11T17:55:11.392Z,100733.84
2023-04-11T17:57:37.743Z,100730.34
2023-04-11T18:00:06.388Z,100734.72
2023-04-11T18:02:32.985Z,100735.66
2023-04-11T18:05:00.872Z,100746.28
2023-04-11T18:07:27.381Z,100754.22
2023-04-11T18:09:53.714Z,100758.63
2023-04-11T18:12:20.014Z,100760.47
2023-04-11T18:14:55.957Z,100759.66
2023-04-11T18:17:22.390Z,100764.09
2023-04-11T18:19:48.664Z,100770.34
2023-04-11T18:22:14.934Z,100775.66
2023-04-11T18:24:41.313Z,100759.88
2023-04-11T18:27:07.592Z,100766.97
2023-04-11T18:29:33.876Z,100758.13
2023-04-11T18:32:00.173Z,100760.88
2023-04-11T18:34:26.507Z,100769.66
2023-04-11T18:36:52.992Z,100769.69
2023-04-11T18:39:19.561Z,100773.22
2023-04-11T18:41:46.766Z,100783.81
2023-04-11T18:44:13.546Z,100792.69
2023-04-11T18:46:40.040Z,100791.84
2023-04-11T18:49:07.345Z,100791.00
2023-04-11T18:51:34.238Z,100794.53
2023-04-11T18:54:00.523Z,100804.19
2023-04-11T18:56:26.810Z,100794.56
2023-04-11T18:58:55.507Z,100798.16
2023-04-11T19:01:25.658Z,100807.00
2023-04-11T19:03:52.502Z,100806.13
2023-04-11T19:06:19.092Z,100809.69
2023-04-11T19:08:45.377Z,100809.63
2023-04-11T19:11:11.679Z,100807.97
2023-04-11T19:13:37.950Z,100806.25
2023-04-11T19:16:04.959Z,100808.91
2023-04-11T19:18:31.429Z,100809.81
